Pagina principală
METAR-TAF:

METAR-TAF

Aeroporturi :

O'Neill Municipal Airport (John L. Baker Field)

O'Neill, Nebraska, Statele Unite ale Americii

Latitudine: 42-28N, longitudine: 098-41W, elevație: 619 m

Observații meteo curente

Raportul a fost făcut în urmă cu 26 de minute, la 02:35 UTC
Vânt 7 kt de la Vest
Temperatură 12°C
Umiditate 82%
Presiune 1010 hPa
Vizibilitate: 16.1 km
Cer senin

METAR: KONL 220235Z AUTO 28007KT 10SM CLR 12/09 A2983 RMK AO2 T01150087

Ora: 22:01 (03:01 UTC)


TAF: lipsă

Observații și prognoze meteo pentru peste 4.000 de aeroporturi (rapoarte METAR și TAF).

Stațiile disponibile sunt reprezentate pe hartă prin puncte galbene și roșii.

Țineți indicatorul mouse-ului pe punctul dorit pentru a vedea denumirea stației.

Apoi, faceți clic pentru a vedea observațiile și prognozele meteorologice.

Pentru a schimba harta: Pentru mărire, faceți clic pe butoanele verzi cu cruce neagră; pentru micșorare, pe butonul verde cu o liniuță; pentru hărți învecinate, pe săgețile verzi.


METAR-TAF: